sensor_id;sensor_type;location;lat;lon;timestamp;temperature;humidity
37972;DHT22;23794;48.234;8.344;2022-08-19T00:01:34;17.40;99.90
37972;DHT22;23794;48.234;8.344;2022-08-19T00:04:06;17.40;99.90
37972;DHT22;23794;48.234;8.344;2022-08-19T00:06:34;17.50;99.90
37972;DHT22;23794;48.234;8.344;2022-08-19T00:09:03;17.50;99.90
37972;DHT22;23794;48.234;8.344;2022-08-19T00:11:31;17.50;99.90
37972;DHT22;23794;48.234;8.344;2022-08-19T00:13:58;17.50;99.90
37972;DHT22;23794;48.234;8.344;2022-08-19T00:16:25;17.50;99.90
37972;DHT22;23794;48.234;8.344;2022-08-19T00:18:54;17.50;99.90
37972;DHT22;23794;48.234;8.344;2022-08-19T00:21:23;17.60;99.90
37972;DHT22;23794;48.234;8.344;2022-08-19T00:23:51;17.70;99.90
37972;DHT22;23794;48.234;8.344;2022-08-19T00:26:17;17.60;99.90
37972;DHT22;23794;48.234;8.344;2022-08-19T00:28:44;17.60;99.90
37972;DHT22;23794;48.234;8.344;2022-08-19T00:31:11;17.60;99.90
37972;DHT22;23794;48.234;8.344;2022-08-19T00:33:38;17.60;99.90
37972;DHT22;23794;48.234;8.344;2022-08-19T00:36:07;17.60;99.90
37972;DHT22;23794;48.234;8.344;2022-08-19T00:38:36;17.60;99.90
37972;DHT22;23794;48.234;8.344;2022-08-19T00:41:07;17.70;99.90
37972;DHT22;23794;48.234;8.344;2022-08-19T00:43:35;17.70;99.90
37972;DHT22;23794;48.234;8.344;2022-08-19T00:46:01;17.80;99.90
37972;DHT22;23794;48.234;8.344;2022-08-19T00:48:32;17.80;99.90
37972;DHT22;23794;48.234;8.344;2022-08-19T00:51:01;17.80;99.90
37972;DHT22;23794;48.234;8.344;2022-08-19T00:53:30;17.70;99.90
37972;DHT22;23794;48.234;8.344;2022-08-19T00:55:59;17.60;99.90
37972;DHT22;23794;48.234;8.344;2022-08-19T00:58:31;17.60;99.90
37972;DHT22;23794;48.234;8.344;2022-08-19T01:00:59;17.50;99.90
37972;DHT22;23794;48.234;8.344;2022-08-19T01:03:27;17.50;99.90
37972;DHT22;23794;48.234;8.344;2022-08-19T01:05:54;17.50;99.90
37972;DHT22;23794;48.234;8.344;2022-08-19T01:08:23;17.50;99.90
37972;DHT22;23794;48.234;8.344;2022-08-19T01:10:54;17.50;99.90
37972;DHT22;23794;48.234;8.344;2022-08-19T01:13:24;17.50;99.90
37972;DHT22;23794;48.234;8.344;2022-08-19T01:16:03;17.60;99.90
37972;DHT22;23794;48.234;8.344;2022-08-19T01:18:32;17.70;99.90
37972;DHT22;23794;48.234;8.344;2022-08-19T01:21:07;17.80;99.90
37972;DHT22;23794;48.234;8.344;2022-08-19T01:23:34;17.80;99.90
37972;DHT22;23794;48.234;8.344;2022-08-19T01:26:13;17.80;99.90
37972;DHT22;23794;48.234;8.344;2022-08-19T01:28:42;17.80;99.90
37972;DHT22;23794;48.234;8.344;2022-08-19T01:31:19;17.70;99.90
37972;DHT22;23794;48.234;8.344;2022-08-19T01:33:55;17.70;99.90
37972;DHT22;23794;48.234;8.344;2022-08-19T01:39:07;17.80;99.90
37972;DHT22;23794;48.234;8.344;2022-08-19T01:41:35;17.80;99.90
37972;DHT22;23794;48.234;8.344;2022-08-19T01:44:02;17.80;99.90
37972;DHT22;23794;48.234;8.344;2022-08-19T01:46:47;17.80;99.90
37972;DHT22;23794;48.234;8.344;2022-08-19T01:49:16;17.80;99.90
37972;DHT22;23794;48.234;8.344;2022-08-19T01:51:44;17.70;99.90
37972;DHT22;23794;48.234;8.344;2022-08-19T01:54:13;17.70;99.90
37972;DHT22;23794;48.234;8.344;2022-08-19T01:56:57;17.60;99.90
37972;DHT22;23794;48.234;8.344;2022-08-19T01:59:24;17.60;99.90
37972;DHT22;23794;48.234;8.344;2022-08-19T02:01:51;17.70;99.90
37972;DHT22;23794;48.234;8.344;2022-08-19T02:04:18;17.60;99.90
37972;DHT22;23794;48.234;8.344;2022-08-19T02:06:44;17.70;99.90
37972;DHT22;23794;48.234;8.344;2022-08-19T02:09:11;17.60;99.90
37972;DHT22;23794;48.234;8.344;2022-08-19T02:11:38;17.70;99.90
37972;DHT22;23794;48.234;8.344;2022-08-19T02:14:07;17.60;99.90
37972;DHT22;23794;48.234;8.344;2022-08-19T02:16:35;17.50;99.90
37972;DHT22;23794;48.234;8.344;2022-08-19T02:19:02;17.50;99.90
37972;DHT22;23794;48.234;8.344;2022-08-19T02:21:30;17.50;99.90
37972;DHT22;23794;48.234;8.344;2022-08-19T02:23:57;17.50;99.90
37972;DHT22;23794;48.234;8.344;2022-08-19T02:26:25;17.50;99.90
37972;DHT22;23794;48.234;8.344;2022-08-19T02:28:53;17.40;99.90
37972;DHT22;23794;48.234;8.344;2022-08-19T02:31:22;17.40;99.90
37972;DHT22;23794;48.234;8.344;2022-08-19T02:33:51;17.40;99.90
37972;DHT22;23794;48.234;8.344;2022-08-19T02:36:23;17.40;99.90
37972;DHT22;23794;48.234;8.344;2022-08-19T02:38:50;17.50;99.90
37972;DHT22;23794;48.234;8.344;2022-08-19T02:41:30;17.40;99.90
37972;DHT22;23794;48.234;8.344;2022-08-19T02:43:59;17.40;99.90
37972;DHT22;23794;48.234;8.344;2022-08-19T02:46:47;17.40;99.90
37972;DHT22;23794;48.234;8.344;2022-08-19T02:49:17;17.30;99.90
37972;DHT22;23794;48.234;8.344;2022-08-19T02:51:45;17.40;99.90
37972;DHT22;23794;48.234;8.344;2022-08-19T02:54:14;17.40;99.90
37972;DHT22;23794;48.234;8.344;2022-08-19T02:56:42;17.30;99.90
37972;DHT22;23794;48.234;8.344;2022-08-19T02:59:09;17.30;99.90
37972;DHT22;23794;48.234;8.344;2022-08-19T03:01:40;17.30;99.90
37972;DHT22;23794;48.234;8.344;2022-08-19T03:04:09;17.30;99.90
37972;DHT22;23794;48.234;8.344;2022-08-19T03:06:38;17.30;99.90
37972;DHT22;23794;48.234;8.344;2022-08-19T03:09:05;17.30;99.90
37972;DHT22;23794;48.234;8.344;2022-08-19T03:11:32;17.30;99.90
37972;DHT22;23794;48.234;8.344;2022-08-19T03:14:00;17.30;99.90
37972;DHT22;23794;48.234;8.344;2022-08-19T03:16:29;17.30;99.90
37972;DHT22;23794;48.234;8.344;2022-08-19T03:19:00;17.40;99.90
37972;DHT22;23794;48.234;8.344;2022-08-19T03:21:31;17.40;99.90
37972;DHT22;23794;48.234;8.344;2022-08-19T03:24:00;17.40;99.90
37972;DHT22;23794;48.234;8.344;2022-08-19T03:26:28;17.40;99.90
37972;DHT22;23794;48.234;8.344;2022-08-19T03:28:55;17.40;99.90
37972;DHT22;23794;48.234;8.344;2022-08-19T03:31:26;17.40;99.90
37972;DHT22;23794;48.234;8.344;2022-08-19T03:34:16;17.40;99.90
37972;DHT22;23794;48.234;8.344;2022-08-19T03:36:45;17.40;99.90
37972;DHT22;23794;48.234;8.344;2022-08-19T03:39:13;17.40;99.90
37972;DHT22;23794;48.234;8.344;2022-08-19T03:41:43;17.30;99.90
37972;DHT22;23794;48.234;8.344;2022-08-19T03:44:14;17.30;99.90
37972;DHT22;23794;48.234;8.344;2022-08-19T03:46:48;17.30;99.90
37972;DHT22;23794;48.234;8.344;2022-08-19T03:49:16;17.30;99.90
37972;DHT22;23794;48.234;8.344;2022-08-19T03:51:46;17.20;99.90
37972;DHT22;23794;48.234;8.344;2022-08-19T03:54:15;17.20;99.90
37972;DHT22;23794;48.234;8.344;2022-08-19T03:56:44;17.20;99.90
37972;DHT22;23794;48.234;8.344;2022-08-19T03:59:15;17.20;99.90
37972;DHT22;23794;48.234;8.344;2022-08-19T04:01:42;17.20;99.90
37972;DHT22;23794;48.234;8.344;2022-08-19T04:04:09;17.20;99.90
37972;DHT22;23794;48.234;8.344;2022-08-19T04:06:38;17.20;99.90
37972;DHT22;23794;48.234;8.344;2022-08-19T04:09:09;17.30;99.90
37972;DHT22;23794;48.234;8.344;2022-08-19T04:11:41;17.30;99.90
37972;DHT22;23794;48.234;8.344;2022-08-19T04:14:13;17.20;99.90
37972;DHT22;23794;48.234;8.344;2022-08-19T04:16:41;17.20;99.90
37972;DHT22;23794;48.234;8.344;2022-08-19T04:19:09;17.20;99.90
37972;DHT22;23794;48.234;8.344;2022-08-19T04:21:36;17.20;99.90
37972;DHT22;23794;48.234;8.344;2022-08-19T04:24:03;17.20;99.90
37972;DHT22;23794;48.234;8.344;2022-08-19T04:26:33;17.20;99.90
37972;DHT22;23794;48.234;8.344;2022-08-19T04:29:03;17.20;99.90
37972;DHT22;23794;48.234;8.344;2022-08-19T04:31:37;17.20;99.90
37972;DHT22;23794;48.234;8.344;2022-08-19T04:34:06;17.20;99.90
37972;DHT22;23794;48.234;8.344;2022-08-19T04:36:35;17.20;99.90
37972;DHT22;23794;48.234;8.344;2022-08-19T04:39:06;17.10;99.90
37972;DHT22;23794;48.234;8.344;2022-08-19T04:41:33;17.10;99.90
37972;DHT22;23794;48.234;8.344;2022-08-19T04:44:19;17.00;99.90
37972;DHT22;23794;48.234;8.344;2022-08-19T04:46:48;17.00;99.90
37972;DHT22;23794;48.234;8.344;2022-08-19T04:49:19;17.10;99.90
37972;DHT22;23794;48.234;8.344;2022-08-19T04:51:48;17.20;99.90
37972;DHT22;23794;48.234;8.344;2022-08-19T04:54:17;17.20;99.90
37972;DHT22;23794;48.234;8.344;2022-08-19T04:57:06;17.20;99.90
37972;DHT22;23794;48.234;8.344;2022-08-19T04:59:35;17.20;99.90
37972;DHT22;23794;48.234;8.344;2022-08-19T05:02:03;17.20;99.90
37972;DHT22;23794;48.234;8.344;2022-08-19T05:04:30;17.20;99.90
37972;DHT22;23794;48.234;8.344;2022-08-19T05:06:59;17.30;99.90
37972;DHT22;23794;48.234;8.344;2022-08-19T05:09:27;17.20;99.90
37972;DHT22;23794;48.234;8.344;2022-08-19T05:12:14;17.30;99.90
37972;DHT22;23794;48.234;8.344;2022-08-19T05:14:42;17.30;99.90
37972;DHT22;23794;48.234;8.344;2022-08-19T05:17:08;17.30;99.90
37972;DHT22;23794;48.234;8.344;2022-08-19T05:19:55;17.20;99.90
37972;DHT22;23794;48.234;8.344;2022-08-19T05:22:43;17.30;99.90
37972;DHT22;23794;48.234;8.344;2022-08-19T05:25:16;17.20;99.90
37972;DHT22;23794;48.234;8.344;2022-08-19T05:27:45;17.20;99.90
37972;DHT22;23794;48.234;8.344;2022-08-19T05:30:12;17.20;99.90
37972;DHT22;23794;48.234;8.344;2022-08-19T05:32:39;17.20;99.90
37972;DHT22;23794;48.234;8.344;2022-08-19T05:35:07;17.20;99.90
37972;DHT22;23794;48.234;8.344;2022-08-19T05:37:34;17.20;99.90
37972;DHT22;23794;48.234;8.344;2022-08-19T05:40:01;17.10;99.90
37972;DHT22;23794;48.234;8.344;2022-08-19T05:42:28;17.20;99.90
37972;DHT22;23794;48.234;8.344;2022-08-19T05:44:55;17.20;99.90
37972;DHT22;23794;48.234;8.344;2022-08-19T05:47:23;17.20;99.90
37972;DHT22;23794;48.234;8.344;2022-08-19T05:49:49;17.30;99.90
37972;DHT22;23794;48.234;8.344;2022-08-19T05:52:18;17.30;99.90
37972;DHT22;23794;48.234;8.344;2022-08-19T05:54:52;17.30;99.90
37972;DHT22;23794;48.234;8.344;2022-08-19T05:57:21;17.20;99.90
37972;DHT22;23794;48.234;8.344;2022-08-19T05:59:48;17.20;99.90
37972;DHT22;23794;48.234;8.344;2022-08-19T06:02:28;17.30;99.90
37972;DHT22;23794;48.234;8.344;2022-08-19T06:04:55;17.20;99.90
37972;DHT22;23794;48.234;8.344;2022-08-19T06:07:21;17.10;99.90
37972;DHT22;23794;48.234;8.344;2022-08-19T06:09:48;17.30;99.90
37972;DHT22;23794;48.234;8.344;2022-08-19T06:12:28;17.30;99.90
37972;DHT22;23794;48.234;8.344;2022-08-19T06:14:58;17.40;99.90
37972;DHT22;23794;48.234;8.344;2022-08-19T06:17:28;17.40;99.90
37972;DHT22;23794;48.234;8.344;2022-08-19T06:19:56;17.40;99.90
37972;DHT22;23794;48.234;8.344;2022-08-19T06:22:25;17.40;99.90
37972;DHT22;23794;48.234;8.344;2022-08-19T06:24:52;17.40;99.90
37972;DHT22;23794;48.234;8.344;2022-08-19T06:27:21;17.40;99.90
37972;DHT22;23794;48.234;8.344;2022-08-19T06:29:48;17.30;99.90
37972;DHT22;23794;48.234;8.344;2022-08-19T06:32:16;17.30;99.90
37972;DHT22;23794;48.234;8.344;2022-08-19T06:34:43;17.40;99.90
37972;DHT22;23794;48.234;8.344;2022-08-19T06:37:10;17.50;99.90
37972;DHT22;23794;48.234;8.344;2022-08-19T06:39:39;17.50;99.90
37972;DHT22;23794;48.234;8.344;2022-08-19T06:42:07;17.50;99.90
37972;DHT22;23794;48.234;8.344;2022-08-19T06:44:38;17.50;99.90
37972;DHT22;23794;48.234;8.344;2022-08-19T06:47:13;17.50;99.90
37972;DHT22;23794;48.234;8.344;2022-08-19T06:49:54;17.50;99.90
37972;DHT22;23794;48.234;8.344;2022-08-19T06:52:27;17.50;99.90
37972;DHT22;23794;48.234;8.344;2022-08-19T06:54:54;17.60;99.90
37972;DHT22;23794;48.234;8.344;2022-08-19T06:57:25;17.50;99.90
37972;DHT22;23794;48.234;8.344;2022-08-19T06:59:52;17.60;99.90
37972;DHT22;23794;48.234;8.344;2022-08-19T07:02:20;17.60;99.90
37972;DHT22;23794;48.234;8.344;2022-08-19T07:04:47;17.50;99.90
37972;DHT22;23794;48.234;8.344;2022-08-19T07:07:19;17.60;99.90
37972;DHT22;23794;48.234;8.344;2022-08-19T07:09:48;17.50;99.90
37972;DHT22;23794;48.234;8.344;2022-08-19T07:12:30;17.60;99.90
37972;DHT22;23794;48.234;8.344;2022-08-19T07:15:04;17.70;99.90
37972;DHT22;23794;48.234;8.344;2022-08-19T07:17:32;17.80;99.90
37972;DHT22;23794;48.234;8.344;2022-08-19T07:20:00;17.80;99.90
37972;DHT22;23794;48.234;8.344;2022-08-19T07:22:33;17.80;99.90
37972;DHT22;23794;48.234;8.344;2022-08-19T07:25:01;17.80;99.90
37972;DHT22;23794;48.234;8.344;2022-08-19T07:27:30;17.90;99.90
37972;DHT22;23794;48.234;8.344;2022-08-19T07:29:59;18.00;99.90
37972;DHT22;23794;48.234;8.344;2022-08-19T07:32:26;18.10;99.90
37972;DHT22;23794;48.234;8.344;2022-08-19T07:34:54;18.10;99.90
37972;DHT22;23794;48.234;8.344;2022-08-19T07:37:23;18.20;99.90
37972;DHT22;23794;48.234;8.344;2022-08-19T07:39:55;18.20;99.90
37972;DHT22;23794;48.234;8.344;2022-08-19T07:42:22;18.10;99.90
37972;DHT22;23794;48.234;8.344;2022-08-19T07:44:48;18.20;99.90
37972;DHT22;23794;48.234;8.344;2022-08-19T07:47:17;18.20;99.90
37972;DHT22;23794;48.234;8.344;2022-08-19T07:50:07;18.20;99.90
37972;DHT22;23794;48.234;8.344;2022-08-19T07:52:36;18.10;99.90
37972;DHT22;23794;48.234;8.344;2022-08-19T07:55:07;18.20;99.90
37972;DHT22;23794;48.234;8.344;2022-08-19T07:57:54;18.30;99.90
37972;DHT22;23794;48.234;8.344;2022-08-19T08:00:21;18.30;99.90
37972;DHT22;23794;48.234;8.344;2022-08-19T08:02:51;18.30;99.90
37972;DHT22;23794;48.234;8.344;2022-08-19T08:05:22;18.20;99.90
37972;DHT22;23794;48.234;8.344;2022-08-19T08:08:10;18.20;99.90
37972;DHT22;23794;48.234;8.344;2022-08-19T08:10:56;18.20;99.90
37972;DHT22;23794;48.234;8.344;2022-08-19T08:13:24;18.30;99.90
37972;DHT22;23794;48.234;8.344;2022-08-19T08:15:52;18.20;99.90
37972;DHT22;23794;48.234;8.344;2022-08-19T08:18:24;18.30;99.90
37972;DHT22;23794;48.234;8.344;2022-08-19T08:20:57;18.30;99.90
37972;DHT22;23794;48.234;8.344;2022-08-19T08:23:24;18.40;99.90
37972;DHT22;23794;48.234;8.344;2022-08-19T08:25:55;18.50;99.90
37972;DHT22;23794;48.234;8.344;2022-08-19T08:28:24;18.60;99.90
37972;DHT22;23794;48.234;8.344;2022-08-19T08:30:51;18.60;99.90
37972;DHT22;23794;48.234;8.344;2022-08-19T08:33:23;18.60;99.90
37972;DHT22;23794;48.234;8.344;2022-08-19T08:36:06;18.70;99.90
37972;DHT22;23794;48.234;8.344;2022-08-19T08:38:34;18.70;99.90
37972;DHT22;23794;48.234;8.344;2022-08-19T08:41:22;18.70;99.90
37972;DHT22;23794;48.234;8.344;2022-08-19T08:43:55;18.80;99.90
37972;DHT22;23794;48.234;8.344;2022-08-19T08:54:37;18.90;99.90
37972;DHT22;23794;48.234;8.344;2022-08-19T08:57:12;18.80;99.90
37972;DHT22;23794;48.234;8.344;2022-08-19T08:59:41;18.80;99.90
37972;DHT22;23794;48.234;8.344;2022-08-19T09:02:09;18.80;99.90
37972;DHT22;23794;48.234;8.344;2022-08-19T09:04:37;18.90;99.90
37972;DHT22;23794;48.234;8.344;2022-08-19T09:10:19;18.90;99.90
37972;DHT22;23794;48.234;8.344;2022-08-19T09:13:15;18.80;99.90
37972;DHT22;23794;48.234;8.344;2022-08-19T09:15:48;18.80;99.90
37972;DHT22;23794;48.234;8.344;2022-08-19T09:18:17;18.90;99.90
37972;DHT22;23794;48.234;8.344;2022-08-19T09:20:46;18.90;99.90
37972;DHT22;23794;48.234;8.344;2022-08-19T09:23:16;18.90;99.90
37972;DHT22;23794;48.234;8.344;2022-08-19T09:25:42;18.70;99.90
37972;DHT22;23794;48.234;8.344;2022-08-19T09:28:09;18.70;99.90
37972;DHT22;23794;48.234;8.344;2022-08-19T09:30:48;18.70;99.90
37972;DHT22;23794;48.234;8.344;2022-08-19T09:33:18;18.60;99.90
37972;DHT22;23794;48.234;8.344;2022-08-19T09:35:47;18.60;99.90
37972;DHT22;23794;48.234;8.344;2022-08-19T09:38:20;18.70;99.90
37972;DHT22;23794;48.234;8.344;2022-08-19T09:40:47;18.70;99.90
37972;DHT22;23794;48.234;8.344;2022-08-19T09:43:13;18.60;99.90
37972;DHT22;23794;48.234;8.344;2022-08-19T09:45:59;18.60;99.90
37972;DHT22;23794;48.234;8.344;2022-08-19T09:48:26;18.60;99.90
37972;DHT22;23794;48.234;8.344;2022-08-19T09:50:53;18.60;99.90
37972;DHT22;23794;48.234;8.344;2022-08-19T09:53:20;18.70;99.90
37972;DHT22;23794;48.234;8.344;2022-08-19T09:55:51;18.80;99.90
37972;DHT22;23794;48.234;8.344;2022-08-19T09:58:18;18.90;99.90
37972;DHT22;23794;48.234;8.344;2022-08-19T10:00:52;19.00;99.90
37972;DHT22;23794;48.234;8.344;2022-08-19T10:03:20;19.00;99.90
37972;DHT22;23794;48.234;8.344;2022-08-19T10:05:51;19.20;99.90
37972;DHT22;23794;48.234;8.344;2022-08-19T10:08:35;19.30;99.90
37972;DHT22;23794;48.234;8.344;2022-08-19T10:11:03;19.20;99.90
37972;DHT22;23794;48.234;8.344;2022-08-19T10:13:50;19.30;99.90
37972;DHT22;23794;48.234;8.344;2022-08-19T10:16:20;19.30;99.90
37972;DHT22;23794;48.234;8.344;2022-08-19T10:18:52;19.20;99.90
37972;DHT22;23794;48.234;8.344;2022-08-19T10:21:28;19.00;99.90
37972;DHT22;23794;48.234;8.344;2022-08-19T10:24:00;19.10;99.90
37972;DHT22;23794;48.234;8.344;2022-08-19T10:26:39;19.10;99.90
37972;DHT22;23794;48.234;8.344;2022-08-19T10:29:12;19.20;99.90
37972;DHT22;23794;48.234;8.344;2022-08-19T10:32:06;19.30;99.90
37972;DHT22;23794;48.234;8.344;2022-08-19T10:34:39;19.20;99.90
37972;DHT22;23794;48.234;8.344;2022-08-19T10:37:15;19.00;99.90
37972;DHT22;23794;48.234;8.344;2022-08-19T10:39:50;18.90;99.90
37972;DHT22;23794;48.234;8.344;2022-08-19T10:42:18;19.00;99.90
37972;DHT22;23794;48.234;8.344;2022-08-19T10:44:45;19.10;99.90
37972;DHT22;23794;48.234;8.344;2022-08-19T10:47:13;19.20;99.90
37972;DHT22;23794;48.234;8.344;2022-08-19T10:49:50;19.20;99.90
37972;DHT22;23794;48.234;8.344;2022-08-19T10:52:47;19.40;99.90
37972;DHT22;23794;48.234;8.344;2022-08-19T10:55:22;19.70;99.90
37972;DHT22;23794;48.234;8.344;2022-08-19T10:58:17;19.80;99.90
37972;DHT22;23794;48.234;8.344;2022-08-19T11:00:57;19.90;99.90
37972;DHT22;23794;48.234;8.344;2022-08-19T11:03:25;19.90;99.90
37972;DHT22;23794;48.234;8.344;2022-08-19T11:06:01;19.80;99.90
37972;DHT22;23794;48.234;8.344;2022-08-19T11:08:29;19.70;99.90
37972;DHT22;23794;48.234;8.344;2022-08-19T11:10:59;19.60;99.90
37972;DHT22;23794;48.234;8.344;2022-08-19T11:13:32;19.70;99.90
37972;DHT22;23794;48.234;8.344;2022-08-19T11:16:05;19.90;99.90
37972;DHT22;23794;48.234;8.344;2022-08-19T11:18:38;20.20;99.90
37972;DHT22;23794;48.234;8.344;2022-08-19T11:21:19;20.40;99.90
37972;DHT22;23794;48.234;8.344;2022-08-19T11:23:48;20.70;99.90
37972;DHT22;23794;48.234;8.344;2022-08-19T11:26:17;21.20;99.90
37972;DHT22;23794;48.234;8.344;2022-08-19T11:28:45;21.40;99.90
37972;DHT22;23794;48.234;8.344;2022-08-19T11:31:15;21.30;99.90
37972;DHT22;23794;48.234;8.344;2022-08-19T11:33:42;21.20;99.90
37972;DHT22;23794;48.234;8.344;2022-08-19T11:36:13;21.20;99.90
37972;DHT22;23794;48.234;8.344;2022-08-19T11:38:40;21.30;99.90
37972;DHT22;23794;48.234;8.344;2022-08-19T11:41:07;21.20;99.90
37972;DHT22;23794;48.234;8.344;2022-08-19T11:43:35;21.10;99.90
37972;DHT22;23794;48.234;8.344;2022-08-19T11:46:09;21.20;99.90
37972;DHT22;23794;48.234;8.344;2022-08-19T11:48:36;21.40;99.90
37972;DHT22;23794;48.234;8.344;2022-08-19T11:51:06;21.20;99.90
37972;DHT22;23794;48.234;8.344;2022-08-19T11:53:36;21.20;99.90
37972;DHT22;23794;48.234;8.344;2022-08-19T11:56:03;21.20;99.90
37972;DHT22;23794;48.234;8.344;2022-08-19T11:58:30;21.20;99.90
37972;DHT22;23794;48.234;8.344;2022-08-19T12:00:57;21.00;99.90
37972;DHT22;23794;48.234;8.344;2022-08-19T12:03:24;20.70;99.90
37972;DHT22;23794;48.234;8.344;2022-08-19T12:05:51;20.90;99.90
37972;DHT22;23794;48.234;8.344;2022-08-19T12:08:18;21.00;99.90
37972;DHT22;23794;48.234;8.344;2022-08-19T12:10:45;20.80;99.90
37972;DHT22;23794;48.234;8.344;2022-08-19T12:13:13;20.90;99.90
37972;DHT22;23794;48.234;8.344;2022-08-19T12:15:46;20.90;99.90
37972;DHT22;23794;48.234;8.344;2022-08-19T12:18:14;20.80;99.90
37972;DHT22;23794;48.234;8.344;2022-08-19T12:20:42;20.70;99.90
37972;DHT22;23794;48.234;8.344;2022-08-19T12:23:09;20.70;99.90
37972;DHT22;23794;48.234;8.344;2022-08-19T12:25:37;20.70;99.90
37972;DHT22;23794;48.234;8.344;2022-08-19T12:28:09;20.70;99.90
37972;DHT22;23794;48.234;8.344;2022-08-19T12:30:37;20.50;99.90
37972;DHT22;23794;48.234;8.344;2022-08-19T12:33:04;20.50;99.90
37972;DHT22;23794;48.234;8.344;2022-08-19T12:35:31;20.40;99.90
37972;DHT22;23794;48.234;8.344;2022-08-19T12:37:58;20.40;99.90
37972;DHT22;23794;48.234;8.344;2022-08-19T12:40:25;20.40;99.90
37972;DHT22;23794;48.234;8.344;2022-08-19T12:42:53;20.50;99.90
37972;DHT22;23794;48.234;8.344;2022-08-19T12:45:20;20.50;99.90
37972;DHT22;23794;48.234;8.344;2022-08-19T12:47:48;20.60;99.90
37972;DHT22;23794;48.234;8.344;2022-08-19T12:50:15;20.70;99.90
37972;DHT22;23794;48.234;8.344;2022-08-19T12:52:42;20.70;99.90
37972;DHT22;23794;48.234;8.344;2022-08-19T12:55:09;20.70;99.90
37972;DHT22;23794;48.234;8.344;2022-08-19T12:57:37;20.60;99.90
37972;DHT22;23794;48.234;8.344;2022-08-19T13:00:13;20.60;99.90
37972;DHT22;23794;48.234;8.344;2022-08-19T13:02:42;20.70;99.90
37972;DHT22;23794;48.234;8.344;2022-08-19T13:05:14;20.90;99.90
37972;DHT22;23794;48.234;8.344;2022-08-19T13:07:42;21.00;99.90
37972;DHT22;23794;48.234;8.344;2022-08-19T13:10:12;21.30;99.90
37972;DHT22;23794;48.234;8.344;2022-08-19T13:12:39;21.50;99.90
37972;DHT22;23794;48.234;8.344;2022-08-19T13:15:08;21.70;99.90
37972;DHT22;23794;48.234;8.344;2022-08-19T13:17:37;22.10;99.90
37972;DHT22;23794;48.234;8.344;2022-08-19T13:20:05;22.50;99.90
37972;DHT22;23794;48.234;8.344;2022-08-19T13:22:34;23.00;99.90
37972;DHT22;23794;48.234;8.344;2022-08-19T13:25:04;23.50;99.90
37972;DHT22;23794;48.234;8.344;2022-08-19T13:27:32;23.50;99.90
37972;DHT22;23794;48.234;8.344;2022-08-19T13:29:59;23.50;99.90
37972;DHT22;23794;48.234;8.344;2022-08-19T13:32:45;23.80;99.90
37972;DHT22;23794;48.234;8.344;2022-08-19T13:35:30;24.10;99.90
37972;DHT22;23794;48.234;8.344;2022-08-19T13:37:57;24.00;99.90
37972;DHT22;23794;48.234;8.344;2022-08-19T13:40:25;23.80;99.90
37972;DHT22;23794;48.234;8.344;2022-08-19T13:42:54;23.60;99.90
37972;DHT22;23794;48.234;8.344;2022-08-19T13:45:23;23.70;99.90
37972;DHT22;23794;48.234;8.344;2022-08-19T13:47:52;23.70;99.90
37972;DHT22;23794;48.234;8.344;2022-08-19T13:50:30;23.60;99.90
37972;DHT22;23794;48.234;8.344;2022-08-19T13:52:58;23.60;99.90
37972;DHT22;23794;48.234;8.344;2022-08-19T13:55:25;23.80;99.90
37972;DHT22;23794;48.234;8.344;2022-08-19T13:57:53;23.80;99.90
37972;DHT22;23794;48.234;8.344;2022-08-19T14:00:21;24.00;99.90
37972;DHT22;23794;48.234;8.344;2022-08-19T14:02:52;24.00;99.90
37972;DHT22;23794;48.234;8.344;2022-08-19T14:05:19;23.80;99.90
37972;DHT22;23794;48.234;8.344;2022-08-19T14:07:46;23.70;99.90
37972;DHT22;23794;48.234;8.344;2022-08-19T14:10:15;23.60;99.90
37972;DHT22;23794;48.234;8.344;2022-08-19T14:12:42;23.60;99.90
37972;DHT22;23794;48.234;8.344;2022-08-19T14:15:10;23.80;99.90
37972;DHT22;23794;48.234;8.344;2022-08-19T14:17:42;24.00;99.90
37972;DHT22;23794;48.234;8.344;2022-08-19T14:20:11;23.90;99.90
37972;DHT22;23794;48.234;8.344;2022-08-19T14:22:45;24.00;99.90
37972;DHT22;23794;48.234;8.344;2022-08-19T14:25:19;24.20;99.90
37972;DHT22;23794;48.234;8.344;2022-08-19T14:27:47;24.20;99.90
37972;DHT22;23794;48.234;8.344;2022-08-19T14:30:23;23.90;99.90
37972;DHT22;23794;48.234;8.344;2022-08-19T14:32:54;23.70;99.90
37972;DHT22;23794;48.234;8.344;2022-08-19T14:35:21;23.60;99.90
37972;DHT22;23794;48.234;8.344;2022-08-19T14:37:49;23.60;99.90
37972;DHT22;23794;48.234;8.344;2022-08-19T14:40:18;23.80;99.90
37972;DHT22;23794;48.234;8.344;2022-08-19T14:42:49;23.80;99.90
37972;DHT22;23794;48.234;8.344;2022-08-19T14:45:16;23.80;99.90
37972;DHT22;23794;48.234;8.344;2022-08-19T14:47:42;23.60;99.90
37972;DHT22;23794;48.234;8.344;2022-08-19T14:50:11;23.50;99.90
37972;DHT22;23794;48.234;8.344;2022-08-19T14:52:45;23.50;99.90
37972;DHT22;23794;48.234;8.344;2022-08-19T14:55:15;23.30;99.90
37972;DHT22;23794;48.234;8.344;2022-08-19T14:57:44;22.90;99.90
37972;DHT22;23794;48.234;8.344;2022-08-19T15:00:11;22.60;99.90
37972;DHT22;23794;48.234;8.344;2022-08-19T15:02:41;22.20;99.90
37972;DHT22;23794;48.234;8.344;2022-08-19T15:05:11;21.90;99.90
37972;DHT22;23794;48.234;8.344;2022-08-19T15:07:39;21.60;99.90
37972;DHT22;23794;48.234;8.344;2022-08-19T15:10:08;21.30;99.90
37972;DHT22;23794;48.234;8.344;2022-08-19T15:12:37;21.10;99.90
37972;DHT22;23794;48.234;8.344;2022-08-19T15:15:08;20.90;99.90
37972;DHT22;23794;48.234;8.344;2022-08-19T15:17:40;20.60;99.90
37972;DHT22;23794;48.234;8.344;2022-08-19T15:20:14;20.40;99.90
37972;DHT22;23794;48.234;8.344;2022-08-19T15:22:41;20.20;99.90
37972;DHT22;23794;48.234;8.344;2022-08-19T15:25:10;20.10;99.90
37972;DHT22;23794;48.234;8.344;2022-08-19T15:27:38;20.00;99.90
37972;DHT22;23794;48.234;8.344;2022-08-19T15:30:08;19.70;99.90
37972;DHT22;23794;48.234;8.344;2022-08-19T15:32:35;19.70;99.90
37972;DHT22;23794;48.234;8.344;2022-08-19T15:35:05;19.70;99.90
37972;DHT22;23794;48.234;8.344;2022-08-19T15:37:32;19.70;99.90
37972;DHT22;23794;48.234;8.344;2022-08-19T15:40:04;19.80;99.90
37972;DHT22;23794;48.234;8.344;2022-08-19T15:42:32;19.60;99.90
37972;DHT22;23794;48.234;8.344;2022-08-19T15:44:59;19.60;99.90
37972;DHT22;23794;48.234;8.344;2022-08-19T15:47:28;19.60;99.90
37972;DHT22;23794;48.234;8.344;2022-08-19T15:50:19;19.70;99.90
37972;DHT22;23794;48.234;8.344;2022-08-19T15:52:49;19.80;99.90
37972;DHT22;23794;48.234;8.344;2022-08-19T15:55:18;19.80;99.90
37972;DHT22;23794;48.234;8.344;2022-08-19T15:58:11;19.80;99.90
37972;DHT22;23794;48.234;8.344;2022-08-19T16:00:58;19.80;99.90
37972;DHT22;23794;48.234;8.344;2022-08-19T16:03:51;19.80;99.90
37972;DHT22;23794;48.234;8.344;2022-08-19T16:06:47;19.80;99.90